sensor_id;sensor_type;location;lat;lon;timestamp;pressure;altitude;pressure_sealevel;temperature;humidity
77321;BME280;66382;52.252;8.780;2023-02-28T00:00:28;102094.25;;;2.34;58.61
77321;BME280;66382;52.252;8.780;2023-02-28T00:02:54;102088.88;;;2.36;58.78
77321;BME280;66382;52.252;8.780;2023-02-28T00:05:22;102098.72;;;2.34;58.47
77321;BME280;66382;52.252;8.780;2023-02-28T00:07:48;102090.69;;;2.21;58.23
77321;BME280;66382;52.252;8.780;2023-02-28T00:10:17;102097.41;;;2.27;58.41
77321;BME280;66382;52.252;8.780;2023-02-28T00:12:45;102095.72;;;2.26;58.65
77321;BME280;66382;52.252;8.780;2023-02-28T00:15:11;102089.66;;;2.24;58.51
77321;BME280;66382;52.252;8.780;2023-02-28T00:17:37;102090.69;;;2.21;58.32
77321;BME280;66382;52.252;8.780;2023-02-28T00:20:06;102083.03;;;2.17;58.42
77321;BME280;66382;52.252;8.780;2023-02-28T00:22:32;102083.13;;;2.15;58.72
77321;BME280;66382;52.252;8.780;2023-02-28T00:24:57;102088.41;;;2.15;58.72
77321;BME280;66382;52.252;8.780;2023-02-28T00:27:23;102089.56;;;2.11;58.72
77321;BME280;66382;52.252;8.780;2023-02-28T00:29:50;102095.13;;;2.06;58.57
77321;BME280;66382;52.252;8.780;2023-02-28T00:32:16;102097.78;;;1.92;59.03
77321;BME280;66382;52.252;8.780;2023-02-28T00:34:42;102098.50;;;1.80;58.85
77321;BME280;66382;52.252;8.780;2023-02-28T00:37:09;102095.28;;;1.75;59.38
77321;BME280;66382;52.252;8.780;2023-02-28T00:39:37;102104.34;;;1.70;58.79
77321;BME280;66382;52.252;8.780;2023-02-28T00:42:03;102099.25;;;1.67;59.08
77321;BME280;66382;52.252;8.780;2023-02-28T00:44:29;102100.66;;;1.59;59.08
77321;BME280;66382;52.252;8.780;2023-02-28T00:46:57;102107.91;;;1.55;58.87
77321;BME280;66382;52.252;8.780;2023-02-28T00:49:23;102100.16;;;1.52;59.39
77321;BME280;66382;52.252;8.780;2023-02-28T00:51:49;102111.50;;;1.54;60.08
77321;BME280;66382;52.252;8.780;2023-02-28T00:54:14;102103.56;;;1.54;59.18
77321;BME280;66382;52.252;8.780;2023-02-28T00:56:40;102101.84;;;1.53;59.68
77321;BME280;66382;52.252;8.780;2023-02-28T00:59:06;102110.91;;;1.49;59.51
77321;BME280;66382;52.252;8.780;2023-02-28T01:01:32;102098.53;;;1.49;59.64
77321;BME280;66382;52.252;8.780;2023-02-28T01:03:59;102101.19;;;1.49;59.71
77321;BME280;66382;52.252;8.780;2023-02-28T01:06:25;102101.09;;;1.51;60.13
77321;BME280;66382;52.252;8.780;2023-02-28T01:08:51;102105.25;;;1.55;59.84
77321;BME280;66382;52.252;8.780;2023-02-28T01:11:17;102103.63;;;1.53;59.56
77321;BME280;66382;52.252;8.780;2023-02-28T01:13:45;102091.56;;;1.48;59.56
77321;BME280;66382;52.252;8.780;2023-02-28T01:16:12;102102.59;;;1.55;59.92
77321;BME280;66382;52.252;8.780;2023-02-28T01:18:38;102095.72;;;1.53;59.50
77321;BME280;66382;52.252;8.780;2023-02-28T01:21:06;102104.50;;;1.53;59.77
77321;BME280;66382;52.252;8.780;2023-02-28T01:23:32;102098.47;;;1.51;59.80
77321;BME280;66382;52.252;8.780;2023-02-28T01:26:03;102094.88;;;1.52;59.72
77321;BME280;66382;52.252;8.780;2023-02-28T01:28:29;102080.56;;;1.40;59.54
77321;BME280;66382;52.252;8.780;2023-02-28T01:30:55;102100.16;;;1.52;59.78
77321;BME280;66382;52.252;8.780;2023-02-28T01:33:20;102078.97;;;1.38;60.46
77321;BME280;66382;52.252;8.780;2023-02-28T01:35:46;102106.41;;;1.51;59.82
77321;BME280;66382;52.252;8.780;2023-02-28T01:38:13;102106.41;;;1.51;59.70
77321;BME280;66382;52.252;8.780;2023-02-28T01:40:39;102098.81;;;1.45;60.43
77321;BME280;66382;52.252;8.780;2023-02-28T01:43:19;102097.56;;;1.36;59.09
77321;BME280;66382;52.252;8.780;2023-02-28T01:45:45;102104.47;;;1.39;60.02
77321;BME280;66382;52.252;8.780;2023-02-28T01:48:11;102090.50;;;1.37;59.65
77321;BME280;66382;52.252;8.780;2023-02-28T01:50:39;102098.75;;;1.31;59.85
77321;BME280;66382;52.252;8.780;2023-02-28T01:53:08;102095.66;;;1.24;59.81
77321;BME280;66382;52.252;8.780;2023-02-28T01:55:38;102100.06;;;1.23;59.67
77321;BME280;66382;52.252;8.780;2023-02-28T01:58:06;102103.66;;;1.22;60.15
77321;BME280;66382;52.252;8.780;2023-02-28T02:00:32;102090.69;;;1.18;59.71
77321;BME280;66382;52.252;8.780;2023-02-28T02:03:00;102096.94;;;1.17;60.17
77321;BME280;66382;52.252;8.780;2023-02-28T02:05:30;102082.56;;;1.06;59.92
77321;BME280;66382;52.252;8.780;2023-02-28T02:07:58;102095.47;;;1.11;59.89
77321;BME280;66382;52.252;8.780;2023-02-28T02:10:30;102093.13;;;1.06;60.14
77321;BME280;66382;52.252;8.780;2023-02-28T02:13:09;102096.03;;;1.02;59.46
77321;BME280;66382;52.252;8.780;2023-02-28T02:15:41;102092.63;;;1.00;60.25
77321;BME280;66382;52.252;8.780;2023-02-28T02:18:19;102086.56;;;0.98;59.91
77321;BME280;66382;52.252;8.780;2023-02-28T02:26:59;102074.75;;;0.89;59.98
77321;BME280;66382;52.252;8.780;2023-02-28T02:29:52;102096.28;;;0.97;59.82
77321;BME280;66382;52.252;8.780;2023-02-28T02:35:28;102090.41;;;0.92;60.50
77321;BME280;66382;52.252;8.780;2023-02-28T02:37:59;102092.09;;;0.93;60.19
77321;BME280;66382;52.252;8.780;2023-02-28T02:40:32;102082.31;;;0.95;60.12
77321;BME280;66382;52.252;8.780;2023-02-28T02:43:06;102076.69;;;0.85;60.81
77321;BME280;66382;52.252;8.780;2023-02-28T02:45:34;102082.66;;;0.89;60.24
77321;BME280;66382;52.252;8.780;2023-02-28T02:48:04;102092.78;;;0.97;61.08
77321;BME280;66382;52.252;8.780;2023-02-28T02:50:36;102106.25;;;0.92;60.74
77321;BME280;66382;52.252;8.780;2023-02-28T02:53:05;102105.41;;;0.92;60.42
77321;BME280;66382;52.252;8.780;2023-02-28T02:55:34;102099.25;;;0.91;61.09
77321;BME280;66382;52.252;8.780;2023-02-28T02:58:07;102098.34;;;0.92;60.64
77321;BME280;66382;52.252;8.780;2023-02-28T03:00:38;102095.00;;;0.89;60.50
77321;BME280;66382;52.252;8.780;2023-02-28T03:03:06;102107.34;;;0.88;59.96
77321;BME280;66382;52.252;8.780;2023-02-28T03:05:41;102100.53;;;0.84;60.63
77321;BME280;66382;52.252;8.780;2023-02-28T03:08:08;102104.19;;;0.81;60.40
77321;BME280;66382;52.252;8.780;2023-02-28T03:10:36;102100.81;;;0.79;60.74
77321;BME280;66382;52.252;8.780;2023-02-28T03:13:29;102099.94;;;0.79;60.80
77321;BME280;66382;52.252;8.780;2023-02-28T03:16:23;102102.09;;;0.72;60.63
77321;BME280;66382;52.252;8.780;2023-02-28T03:19:01;102101.31;;;0.70;60.17
77321;BME280;66382;52.252;8.780;2023-02-28T03:21:34;102098.16;;;0.63;60.13
77321;BME280;66382;52.252;8.780;2023-02-28T03:24:05;102100.19;;;0.58;60.51
77321;BME280;66382;52.252;8.780;2023-02-28T03:26:37;102094.25;;;0.55;60.36
77321;BME280;66382;52.252;8.780;2023-02-28T03:29:08;102092.78;;;0.49;60.79
77321;BME280;66382;52.252;8.780;2023-02-28T03:31:38;102073.66;;;0.30;60.09
77321;BME280;66382;52.252;8.780;2023-02-28T03:34:09;102085.53;;;0.37;60.46
77321;BME280;66382;52.252;8.780;2023-02-28T03:36:39;102095.00;;;0.41;60.57
77321;BME280;66382;52.252;8.780;2023-02-28T03:39:09;102100.34;;;0.39;61.46
77321;BME280;66382;52.252;8.780;2023-02-28T03:41:42;102104.88;;;0.37;60.39
77321;BME280;66382;52.252;8.780;2023-02-28T03:44:12;102102.31;;;0.36;59.82
77321;BME280;66382;52.252;8.780;2023-02-28T03:46:44;102072.69;;;0.15;60.50
77321;BME280;66382;52.252;8.780;2023-02-28T03:49:16;102099.31;;;0.26;60.22
77321;BME280;66382;52.252;8.780;2023-02-28T03:51:45;102090.03;;;0.19;60.68
77321;BME280;66382;52.252;8.780;2023-02-28T03:54:16;102094.22;;;0.23;60.93
77321;BME280;66382;52.252;8.780;2023-02-28T03:56:50;102091.75;;;0.20;60.54
77321;BME280;66382;52.252;8.780;2023-02-28T03:59:21;102091.88;;;0.17;60.16
77321;BME280;66382;52.252;8.780;2023-02-28T04:01:49;102085.09;;;0.13;61.05
77321;BME280;66382;52.252;8.780;2023-02-28T04:04:16;102099.91;;;0.15;59.97
77321;BME280;66382;52.252;8.780;2023-02-28T04:06:44;102083.22;;;0.15;60.01
77321;BME280;66382;52.252;8.780;2023-02-28T04:09:12;102094.69;;;0.14;60.70
77321;BME280;66382;52.252;8.780;2023-02-28T04:11:40;102100.81;;;0.14;59.91
77321;BME280;66382;52.252;8.780;2023-02-28T04:14:08;102104.41;;;0.13;60.41
77321;BME280;66382;52.252;8.780;2023-02-28T04:16:37;102100.03;;;0.12;60.94
77321;BME280;66382;52.252;8.780;2023-02-28T04:19:04;102097.69;;;0.08;60.50
77321;BME280;66382;52.252;8.780;2023-02-28T04:21:31;102099.44;;;0.07;60.56
77321;BME280;66382;52.252;8.780;2023-02-28T04:23:58;102097.97;;;0.02;60.18
77321;BME280;66382;52.252;8.780;2023-02-28T04:26:24;102095.34;;;0.02;60.89
77321;BME280;66382;52.252;8.780;2023-02-28T04:28:49;102094.50;;;0.01;60.64
77321;BME280;66382;52.252;8.780;2023-02-28T04:31:15;102095.59;;;-0.03;59.69
77321;BME280;66382;52.252;8.780;2023-02-28T04:33:41;102092.03;;;-0.02;60.00
77321;BME280;66382;52.252;8.780;2023-02-28T04:36:08;102102.56;;;-0.02;60.05
77321;BME280;66382;52.252;8.780;2023-02-28T04:38:35;102103.59;;;-0.05;59.67
77321;BME280;66382;52.252;8.780;2023-02-28T04:41:04;102090.53;;;-0.08;59.28
77321;BME280;66382;52.252;8.780;2023-02-28T04:43:30;102098.38;;;-0.06;59.64
77321;BME280;66382;52.252;8.780;2023-02-28T04:45:58;102092.34;;;-0.08;59.04
77321;BME280;66382;52.252;8.780;2023-02-28T04:48:27;102092.44;;;-0.10;59.41
77321;BME280;66382;52.252;8.780;2023-02-28T04:50:54;102096.09;;;-0.12;58.95
77321;BME280;66382;52.252;8.780;2023-02-28T04:53:20;102099.56;;;-0.12;59.00
77321;BME280;66382;52.252;8.780;2023-02-28T04:55:46;102107.63;;;-0.15;58.98
77321;BME280;66382;52.252;8.780;2023-02-28T04:58:14;102092.97;;;-0.20;59.53
77321;BME280;66382;52.252;8.780;2023-02-28T05:00:40;102107.72;;;-0.16;59.73
77321;BME280;66382;52.252;8.780;2023-02-28T05:03:06;102101.81;;;-0.22;59.02
77321;BME280;66382;52.252;8.780;2023-02-28T05:05:31;102102.22;;;-0.29;59.02
77321;BME280;66382;52.252;8.780;2023-02-28T05:07:57;102098.81;;;-0.31;59.45
77321;BME280;66382;52.252;8.780;2023-02-28T05:10:23;102105.09;;;-0.34;60.00
77321;BME280;66382;52.252;8.780;2023-02-28T05:12:49;102106.94;;;-0.36;59.90
77321;BME280;66382;52.252;8.780;2023-02-28T05:15:16;102095.06;;;-0.45;59.22
77321;BME280;66382;52.252;8.780;2023-02-28T05:17:43;102103.94;;;-0.46;59.38
77321;BME280;66382;52.252;8.780;2023-02-28T05:20:10;102114.16;;;-0.39;59.47
77321;BME280;66382;52.252;8.780;2023-02-28T05:22:36;102102.69;;;-0.38;59.87
77321;BME280;66382;52.252;8.780;2023-02-28T05:25:02;102105.31;;;-0.38;59.88
77321;BME280;66382;52.252;8.780;2023-02-28T05:27:27;102114.25;;;-0.41;59.57
77321;BME280;66382;52.252;8.780;2023-02-28T05:29:53;102117.72;;;-0.40;59.20
77321;BME280;66382;52.252;8.780;2023-02-28T05:32:20;102116.03;;;-0.41;58.98
77321;BME280;66382;52.252;8.780;2023-02-28T05:34:46;102123.16;;;-0.44;59.47
77321;BME280;66382;52.252;8.780;2023-02-28T05:37:15;102126.84;;;-0.48;58.78
77321;BME280;66382;52.252;8.780;2023-02-28T05:39:41;102115.03;;;-0.56;59.36
77321;BME280;66382;52.252;8.780;2023-02-28T05:42:07;102116.47;;;-0.51;59.32
77321;BME280;66382;52.252;8.780;2023-02-28T05:44:33;102118.34;;;-0.53;59.06
77321;BME280;66382;52.252;8.780;2023-02-28T05:46:59;102110.66;;;-0.57;59.29
77321;BME280;66382;52.252;8.780;2023-02-28T05:49:26;102123.75;;;-0.56;59.30
77321;BME280;66382;52.252;8.780;2023-02-28T05:51:52;102121.19;;;-0.57;59.42
77321;BME280;66382;52.252;8.780;2023-02-28T05:54:17;102119.50;;;-0.58;59.52
77321;BME280;66382;52.252;8.780;2023-02-28T05:56:43;102104.31;;;-0.71;59.49
77321;BME280;66382;52.252;8.780;2023-02-28T05:59:09;102119.56;;;-0.60;59.64
77321;BME280;66382;52.252;8.780;2023-02-28T06:01:37;102123.16;;;-0.61;59.00
77321;BME280;66382;52.252;8.780;2023-02-28T06:04:04;102123.44;;;-0.67;59.36
77321;BME280;66382;52.252;8.780;2023-02-28T06:06:32;102120.06;;;-0.69;59.85
77321;BME280;66382;52.252;8.780;2023-02-28T06:08:58;102115.69;;;-0.70;59.53
77321;BME280;66382;52.252;8.780;2023-02-28T06:11:24;102113.22;;;-0.73;59.58
77321;BME280;66382;52.252;8.780;2023-02-28T06:13:53;102116.63;;;-0.71;59.38
77321;BME280;66382;52.252;8.780;2023-02-28T06:16:19;102116.75;;;-0.74;59.41
77321;BME280;66382;52.252;8.780;2023-02-28T06:18:44;102117.69;;;-0.75;60.40
77321;BME280;66382;52.252;8.780;2023-02-28T06:21:11;102117.84;;;-0.78;59.68
77321;BME280;66382;52.252;8.780;2023-02-28T06:23:39;102121.28;;;-0.76;60.07
77321;BME280;66382;52.252;8.780;2023-02-28T06:26:05;102114.22;;;-0.76;59.97
77321;BME280;66382;52.252;8.780;2023-02-28T06:28:31;102126.22;;;-0.70;60.81
77321;BME280;66382;52.252;8.780;2023-02-28T06:30:57;102128.78;;;-0.69;60.10
77321;BME280;66382;52.252;8.780;2023-02-28T06:33:23;102128.97;;;-0.72;60.07
77321;BME280;66382;52.252;8.780;2023-02-28T06:35:50;102129.94;;;-0.74;59.97
77321;BME280;66382;52.252;8.780;2023-02-28T06:38:16;102136.06;;;-0.74;60.27
77321;BME280;66382;52.252;8.780;2023-02-28T06:40:43;102114.81;;;-0.88;59.98
77321;BME280;66382;52.252;8.780;2023-02-28T06:43:09;102125.59;;;-0.75;60.67
77321;BME280;66382;52.252;8.780;2023-02-28T06:45:35;102134.28;;;-0.73;60.33
77321;BME280;66382;52.252;8.780;2023-02-28T06:48:00;102141.03;;;-0.68;60.77
77321;BME280;66382;52.252;8.780;2023-02-28T06:50:26;102145.22;;;-0.63;61.07
77321;BME280;66382;52.252;8.780;2023-02-28T06:52:52;102145.13;;;-0.62;61.08
77321;BME280;66382;52.252;8.780;2023-02-28T06:55:18;102141.47;;;-0.59;61.02
77321;BME280;66382;52.252;8.780;2023-02-28T06:57:45;102149.25;;;-0.56;60.64
77321;BME280;66382;52.252;8.780;2023-02-28T07:00:13;102156.06;;;-0.52;60.75
77321;BME280;66382;52.252;8.780;2023-02-28T07:02:39;102161.94;;;-0.47;61.32
77321;BME280;66382;52.252;8.780;2023-02-28T07:05:05;102160.94;;;-0.45;62.03
77321;BME280;66382;52.252;8.780;2023-02-28T07:07:31;102160.59;;;-0.37;61.37
77321;BME280;66382;52.252;8.780;2023-02-28T07:09:57;102167.78;;;-0.23;62.05
77321;BME280;66382;52.252;8.780;2023-02-28T07:12:22;102173.56;;;0.18;63.68
77321;BME280;66382;52.252;8.780;2023-02-28T07:14:49;102168.09;;;0.88;63.99
77321;BME280;66382;52.252;8.780;2023-02-28T07:17:15;102175.31;;;1.62;63.55
77321;BME280;66382;52.252;8.780;2023-02-28T07:19:41;102171.78;;;2.36;63.49
77321;BME280;66382;52.252;8.780;2023-02-28T07:22:07;102176.16;;;3.08;62.65
77321;BME280;66382;52.252;8.780;2023-02-28T07:24:33;102173.72;;;3.59;62.23
77321;BME280;66382;52.252;8.780;2023-02-28T07:26:59;102175.38;;;4.00;60.70
77321;BME280;66382;52.252;8.780;2023-02-28T07:29:24;102176.97;;;4.15;60.30
77321;BME280;66382;52.252;8.780;2023-02-28T07:31:51;102175.72;;;4.08;57.57
77321;BME280;66382;52.252;8.780;2023-02-28T07:34:17;102169.41;;;3.83;58.96
77321;BME280;66382;52.252;8.780;2023-02-28T07:36:43;102179.06;;;3.84;59.98
77321;BME280;66382;52.252;8.780;2023-02-28T07:39:09;102177.31;;;4.23;60.64
77321;BME280;66382;52.252;8.780;2023-02-28T07:41:34;102179.91;;;4.62;60.63
77321;BME280;66382;52.252;8.780;2023-02-28T07:44:00;102187.22;;;5.21;59.79
77321;BME280;66382;52.252;8.780;2023-02-28T07:46:26;102179.34;;;5.67;58.81
77321;BME280;66382;52.252;8.780;2023-02-28T07:48:53;102191.72;;;6.03;58.87
77321;BME280;66382;52.252;8.780;2023-02-28T07:51:19;102176.63;;;6.49;58.42
77321;BME280;66382;52.252;8.780;2023-02-28T07:53:44;102188.63;;;6.88;57.76
77321;BME280;66382;52.252;8.780;2023-02-28T07:56:10;102190.56;;;6.98;51.52
77321;BME280;66382;52.252;8.780;2023-02-28T07:58:36;102173.81;;;6.96;54.62
77321;BME280;66382;52.252;8.780;2023-02-28T08:01:06;102177.91;;;7.11;56.15
77321;BME280;66382;52.252;8.780;2023-02-28T08:03:32;102187.41;;;7.36;52.52
77321;BME280;66382;52.252;8.780;2023-02-28T08:05:59;102182.31;;;7.44;55.54
77321;BME280;66382;52.252;8.780;2023-02-28T08:08:25;102163.63;;;7.44;53.21
77321;BME280;66382;52.252;8.780;2023-02-28T08:10:50;102177.81;;;7.77;53.63
77321;BME280;66382;52.252;8.780;2023-02-28T08:13:16;102173.38;;;8.08;53.42
77321;BME280;66382;52.252;8.780;2023-02-28T08:15:42;102167.44;;;8.47;53.17
77321;BME280;66382;52.252;8.780;2023-02-28T08:18:07;102169.50;;;8.74;52.63
77321;BME280;66382;52.252;8.780;2023-02-28T08:20:33;102170.97;;;8.97;53.85
77321;BME280;66382;52.252;8.780;2023-02-28T08:23:00;102166.09;;;9.32;52.97
77321;BME280;66382;52.252;8.780;2023-02-28T08:25:26;102159.91;;;9.80;52.54
77321;BME280;66382;52.252;8.780;2023-02-28T08:27:52;102163.47;;;10.27;52.07
77321;BME280;66382;52.252;8.780;2023-02-28T08:30:18;102158.50;;;10.52;50.83
77321;BME280;66382;52.252;8.780;2023-02-28T08:32:43;102172.00;;;10.88;51.14
77321;BME280;66382;52.252;8.780;2023-02-28T08:35:10;102166.84;;;11.22;51.76
77321;BME280;66382;52.252;8.780;2023-02-28T08:37:36;102168.78;;;11.66;52.47
77321;BME280;66382;52.252;8.780;2023-02-28T08:40:04;102162.13;;;12.14;52.19
77321;BME280;66382;52.252;8.780;2023-02-28T08:42:29;102158.53;;;12.65;49.50
77321;BME280;66382;52.252;8.780;2023-02-28T08:44:55;102159.16;;;12.94;49.90
77321;BME280;66382;52.252;8.780;2023-02-28T08:47:21;102155.13;;;12.98;46.41
77321;BME280;66382;52.252;8.780;2023-02-28T08:49:47;102160.19;;;12.58;43.48
77321;BME280;66382;52.252;8.780;2023-02-28T08:52:12;102165.41;;;11.99;43.20
77321;BME280;66382;52.252;8.780;2023-02-28T08:54:38;102164.19;;;11.58;45.79
77321;BME280;66382;52.252;8.780;2023-02-28T08:57:05;102156.81;;;11.42;44.64
77321;BME280;66382;52.252;8.780;2023-02-28T08:59:31;102174.84;;;11.50;46.36
77321;BME280;66382;52.252;8.780;2023-02-28T09:01:58;102166.31;;;11.54;47.63
77321;BME280;66382;52.252;8.780;2023-02-28T09:04:23;102165.81;;;11.51;44.93
77321;BME280;66382;52.252;8.780;2023-02-28T09:06:49;102168.41;;;11.60;49.69
77321;BME280;66382;52.252;8.780;2023-02-28T09:09:15;102166.16;;;11.74;46.16
77321;BME280;66382;52.252;8.780;2023-02-28T09:11:41;102166.44;;;12.07;43.17
77321;BME280;66382;52.252;8.780;2023-02-28T09:14:08;102166.56;;;12.23;46.21
77321;BME280;66382;52.252;8.780;2023-02-28T09:16:34;102164.97;;;12.38;45.34
77321;BME280;66382;52.252;8.780;2023-02-28T09:19:00;102158.88;;;12.36;44.30
77321;BME280;66382;52.252;8.780;2023-02-28T09:21:26;102165.34;;;12.17;43.93
77321;BME280;66382;52.252;8.780;2023-02-28T09:23:52;102166.66;;;12.13;42.74
77321;BME280;66382;52.252;8.780;2023-02-28T09:26:20;102177.78;;;12.18;45.82
77321;BME280;66382;52.252;8.780;2023-02-28T09:28:46;102166.34;;;12.16;43.66
77321;BME280;66382;52.252;8.780;2023-02-28T09:31:15;102172.13;;;12.03;45.09
77321;BME280;66382;52.252;8.780;2023-02-28T09:33:41;102173.97;;;12.03;46.01
77321;BME280;66382;52.252;8.780;2023-02-28T09:36:07;102173.94;;;11.95;44.16
77321;BME280;66382;52.252;8.780;2023-02-28T09:38:34;102172.91;;;11.96;43.92
77321;BME280;66382;52.252;8.780;2023-02-28T09:41:01;102179.91;;;11.89;45.42
77321;BME280;66382;52.252;8.780;2023-02-28T09:43:32;102184.81;;;11.75;43.13
77321;BME280;66382;52.252;8.780;2023-02-28T09:46:05;102172.00;;;11.69;47.54
77321;BME280;66382;52.252;8.780;2023-02-28T09:48:38;102186.38;;;11.60;45.75
77321;BME280;66382;52.252;8.780;2023-02-28T09:51:14;102193.56;;;11.59;46.95
77321;BME280;66382;52.252;8.780;2023-02-28T09:53:41;102186.28;;;11.34;45.51
77321;BME280;66382;52.252;8.780;2023-02-28T09:56:09;102179.75;;;11.36;46.41
77321;BME280;66382;52.252;8.780;2023-02-28T09:58:40;102180.16;;;11.77;46.87
77321;BME280;66382;52.252;8.780;2023-02-28T10:01:12;102181.91;;;11.87;46.44
77321;BME280;66382;52.252;8.780;2023-02-28T10:03:48;102186.13;;;11.89;47.33
77321;BME280;66382;52.252;8.780;2023-02-28T10:06:18;102188.59;;;12.00;48.12
77321;BME280;66382;52.252;8.780;2023-02-28T10:08:50;102185.66;;;12.12;47.57
77321;BME280;66382;52.252;8.780;2023-02-28T10:11:19;102180.03;;;12.31;45.43
77321;BME280;66382;52.252;8.780;2023-02-28T10:14:00;102186.19;;;12.41;48.74
77321;BME280;66382;52.252;8.780;2023-02-28T10:16:31;102173.59;;;12.50;46.17
77321;BME280;66382;52.252;8.780;2023-02-28T10:19:04;102169.66;;;12.70;47.86
77321;BME280;66382;52.252;8.780;2023-02-28T10:21:35;102173.28;;;12.96;45.67
77321;BME280;66382;52.252;8.780;2023-02-28T10:24:14;102170.53;;;12.79;46.73
77321;BME280;66382;52.252;8.780;2023-02-28T10:26:45;102168.44;;;12.57;40.75
77321;BME280;66382;52.252;8.780;2023-02-28T10:29:12;102177.38;;;12.65;47.75
77321;BME280;66382;52.252;8.780;2023-02-28T10:31:39;102168.22;;;12.84;46.20
77321;BME280;66382;52.252;8.780;2023-02-28T10:34:07;102174.50;;;13.09;46.53
77321;BME280;66382;52.252;8.780;2023-02-28T10:36:33;102165.00;;;13.40;44.32
77321;BME280;66382;52.252;8.780;2023-02-28T10:38:59;102166.63;;;13.16;45.48
77321;BME280;66382;52.252;8.780;2023-02-28T10:41:29;102178.81;;;12.86;39.16
77321;BME280;66382;52.252;8.780;2023-02-28T10:44:13;102162.13;;;12.74;47.09
77321;BME280;66382;52.252;8.780;2023-02-28T10:46:40;102165.66;;;12.83;45.82
77321;BME280;66382;52.252;8.780;2023-02-28T10:49:13;102158.16;;;12.95;46.00
77321;BME280;66382;52.252;8.780;2023-02-28T10:51:40;102150.81;;;12.70;42.16
77321;BME280;66382;52.252;8.780;2023-02-28T10:54:15;102167.31;;;12.07;44.04
77321;BME280;66382;52.252;8.780;2023-02-28T10:56:41;102163.88;;;11.43;43.95
77321;BME280;66382;52.252;8.780;2023-02-28T10:59:26;102167.41;;;11.08;44.88
77321;BME280;66382;52.252;8.780;2023-02-28T11:01:52;102167.44;;;10.70;41.83
77321;BME280;66382;52.252;8.780;2023-02-28T11:04:32;102170.97;;;10.24;45.96
77321;BME280;66382;52.252;8.780;2023-02-28T11:07:00;102160.31;;;9.95;42.96
77321;BME280;66382;52.252;8.780;2023-02-28T11:09:29;102161.16;;;9.95;42.68
77321;BME280;66382;52.252;8.780;2023-02-28T11:11:56;102157.97;;;9.72;40.49
77321;BME280;66382;52.252;8.780;2023-02-28T11:14:24;102158.06;;;9.32;43.11
77321;BME280;66382;52.252;8.780;2023-02-28T11:16:51;102153.25;;;8.96;41.56
77321;BME280;66382;52.252;8.780;2023-02-28T11:19:23;102162.19;;;8.76;44.09
77321;BME280;66382;52.252;8.780;2023-02-28T11:21:54;102159.13;;;8.50;45.30
77321;BME280;66382;52.252;8.780;2023-02-28T11:24:24;102169.69;;;8.30;44.32
77321;BME280;66382;52.252;8.780;2023-02-28T11:26:51;102150.50;;;8.15;44.49
77321;BME280;66382;52.252;8.780;2023-02-28T11:29:19;102158.38;;;8.17;44.65
77321;BME280;66382;52.252;8.780;2023-02-28T11:32:04;102145.97;;;8.06;47.01
77321;BME280;66382;52.252;8.780;2023-02-28T11:34:32;102159.25;;;7.96;45.32
77321;BME280;66382;52.252;8.780;2023-02-28T11:36:59;102140.50;;;7.87;44.23
77321;BME280;66382;52.252;8.780;2023-02-28T11:39:26;102129.09;;;7.85;44.10
77321;BME280;66382;52.252;8.780;2023-02-28T11:42:05;102143.47;;;7.93;45.54
77321;BME280;66382;52.252;8.780;2023-02-28T11:44:48;102155.13;;;7.92;46.61
77321;BME280;66382;52.252;8.780;2023-02-28T11:47:31;102139.50;;;7.88;45.88
77321;BME280;66382;52.252;8.780;2023-02-28T11:50:11;102145.63;;;7.79;46.08
77321;BME280;66382;52.252;8.780;2023-02-28T11:52:45;102141.31;;;7.66;43.89
77321;BME280;66382;52.252;8.780;2023-02-28T11:55:17;102134.13;;;7.46;44.45
77321;BME280;66382;52.252;8.780;2023-02-28T11:57:56;102130.81;;;7.32;46.40
77321;BME280;66382;52.252;8.780;2023-02-28T12:00:40;102135.41;;;7.30;47.19
77321;BME280;66382;52.252;8.780;2023-02-28T12:03:20;102129.63;;;7.25;46.33
77321;BME280;66382;52.252;8.780;2023-02-28T12:06:01;102126.59;;;7.19;46.63
77321;BME280;66382;52.252;8.780;2023-02-28T12:08:44;102123.59;;;7.12;46.44
77321;BME280;66382;52.252;8.780;2023-02-28T12:11:22;102123.84;;;7.09;47.40
77321;BME280;66382;52.252;8.780;2023-02-28T12:14:03;102113.97;;;6.88;46.21
77321;BME280;66382;52.252;8.780;2023-02-28T12:16:44;102112.19;;;6.78;46.01
77321;BME280;66382;52.252;8.780;2023-02-28T12:19:20;102102.84;;;6.83;47.13
77321;BME280;66382;52.252;8.780;2023-02-28T12:22:06;102109.47;;;6.89;46.30
77321;BME280;66382;52.252;8.780;2023-02-28T12:25:18;102105.97;;;6.77;47.20
77321;BME280;66382;52.252;8.780;2023-02-28T12:27:48;102109.41;;;6.68;46.60
77321;BME280;66382;52.252;8.780;2023-02-28T12:30:17;102102.03;;;6.60;46.60
77321;BME280;66382;52.252;8.780;2023-02-28T12:32:48;102094.53;;;6.54;45.71
77321;BME280;66382;52.252;8.780;2023-02-28T12:35:19;102095.97;;;6.58;47.35
77321;BME280;66382;52.252;8.780;2023-02-28T12:37:51;102096.31;;;6.65;46.36
77321;BME280;66382;52.252;8.780;2023-02-28T12:40:22;102086.53;;;6.65;45.38
77321;BME280;66382;52.252;8.780;2023-02-28T12:42:51;102086.75;;;6.74;46.28
77321;BME280;66382;52.252;8.780;2023-02-28T12:45:19;102086.84;;;6.72;45.23
77321;BME280;66382;52.252;8.780;2023-02-28T12:47:49;102083.22;;;6.73;44.68
77321;BME280;66382;52.252;8.780;2023-02-28T12:50:17;102093.38;;;6.79;45.34
77321;BME280;66382;52.252;8.780;2023-02-28T12:52:52;102083.69;;;6.78;47.03
77321;BME280;66382;52.252;8.780;2023-02-28T12:55:25;102082.03;;;6.66;46.39
77321;BME280;66382;52.252;8.780;2023-02-28T12:57:59;102078.53;;;6.54;47.06
77321;BME280;66382;52.252;8.780;2023-02-28T13:00:33;102077.19;;;6.60;46.69
77321;BME280;66382;52.252;8.780;2023-02-28T13:03:28;102067.13;;;6.63;47.86
77321;BME280;66382;52.252;8.780;2023-02-28T13:06:28;102069.53;;;6.66;47.22
77321;BME280;66382;52.252;8.780;2023-02-28T13:09:05;102055.50;;;6.64;47.12
77321;BME280;66382;52.252;8.780;2023-02-28T13:11:40;102065.66;;;6.71;47.62
77321;BME280;66382;52.252;8.780;2023-02-28T13:14:19;102061.09;;;6.61;47.04